Station Historical Data
Daily Summary for May 20, 2011 Units:  Both    English   Metric
« Previous Day
Next Day »
Daily Weekly Monthly Yearly Custom
  High: Low: Average:
Temperature: 84.6 °F /  29.2 °C 60.7 °F /  15.9 °C 72.5 °F /  22.5 °C
Dew Point: 63.0 °F /  17.2 °C 54.6 °F /  12.6 °C 58 °F /  14.4 °C
Humidity: 81% 41% 62%
Wind Speed: 9.0mph /  14.5km/h - 3mph /  4.8km/h
Wind Gust: 12.0mph /  19.3km/h - -
Wind- - SE
Pressure: 30.03 in /  1016.8 hPa 29.91 in /  1012.8 hPa -
Precipitation: 0.00 in /  0 mm    
Historical Graphs
 
 
Tabular Data for May 20, 2011
Time Temperature Dew Point Pressure Wind Wind Speed Wind Gust Humidity Rainfall Rate (Hourly) Conditions
00:00 64.3 °F /  17.9 °C 56.6 °F /  13.7 °C 30.00in /  1015.8hPa ENE 2.0mph /  3.2km/h 3.0mph /  4.8km/h 76% 0.00in /  0mm
00:01 64.4 °F /  18 °C 56.7 °F /  13.7 °C 30.00in /  1015.8hPa Calm   3.0mph /  4.8km/h 76% 0.00in /  0mm
00:05 64.3 °F /  17.9 °C 56.6 °F /  13.7 °C 30.01in /  1016.1hPa ESE 1.0mph /  1.6km/h 1.0mph /  1.6km/h 76% 0.00in /  0mm
00:10 64.2 °F /  17.9 °C 56.5 °F /  13.6 °C 30.01in /  1016.1hPa East 1.0mph /  1.6km/h 2.0mph /  3.2km/h 76% 0.00in /  0mm
00:11 64.2 °F /  17.9 °C 56.5 °F /  13.6 °C 30.01in /  1016.1hPa ESE 2.0mph /  3.2km/h 2.0mph /  3.2km/h 76% 0.00in /  0mm
00:16 64.1 °F /  17.8 °C 56.4 °F /  13.6 °C 30.01in /  1016.1hPa ENE 2.0mph /  3.2km/h 3.0mph /  4.8km/h 76% 0.00in /  0mm
00:21 64.0 °F /  17.8 °C 56.7 °F /  13.7 °C 30.01in /  1016.1hPa ESE 1.0mph /  1.6km/h 2.0mph /  3.2km/h 77% 0.00in /  0mm
00:26 63.9 °F /  17.7 °C 56.6 °F /  13.7 °C 30.01in /  1016.1hPa ESE 2.0mph /  3.2km/h 2.0mph /  3.2km/h 77% 0.00in /  0mm
00:29 63.8 °F /  17.7 °C 56.5 °F /  13.6 °C 30.01in /  1016.1hPa ESE 2.0mph /  3.2km/h 2.0mph /  3.2km/h 77% 0.00in /  0mm
00:31 63.7 °F /  17.6 °C 56.4 °F /  13.6 °C 30.01in /  1016.1hPa East 2.0mph /  3.2km/h 3.0mph /  4.8km/h 77% 0.00in /  0mm
00:34 63.6 °F /  17.6 °C 56.3 °F /  13.5 °C 30.01in /  1016.1hPa Calm   2.0mph /  3.2km/h 77% 0.00in /  0mm
00:37 63.5 °F /  17.5 °C 56.5 °F /  13.6 °C 30.01in /  1016.1hPa Calm   1.0mph /  1.6km/h 78% 0.00in /  0mm
00:42 63.4 °F /  17.4 °C 56.4 °F /  13.6 °C 30.01in /  1016.1hPa ESE 1.0mph /  1.6km/h 2.0mph /  3.2km/h 78% 0.00in /  0mm
00:47 63.4 °F /  17.4 °C 56.4 °F /  13.6 °C 30.01in /  1016.1hPa ESE 1.0mph /  1.6km/h 1.0mph /  1.6km/h 78% 0.00in /  0mm
00:52 63.3 °F /  17.4 °C 56.3 °F /  13.5 °C 30.01in /  1016.1hPa ESE 1.0mph /  1.6km/h 2.0mph /  3.2km/h 78% 0.00in /  0mm
00:57 63.3 °F /  17.4 °C 56.3 °F /  13.5 °C 30.01in /  1016.1hPa ESE 1.0mph /  1.6km/h 1.0mph /  1.6km/h 78% 0.00in /  0mm
00:58 63.2 °F /  17.3 °C 56.2 °F /  13.4 °C 30.01in /  1016.1hPa East 1.0mph /  1.6km/h 2.0mph /  3.2km/h 78% 0.00in /  0mm
01:03 63.3 °F /  17.4 °C 56.3 °F /  13.5 °C 30.01in /  1016.1hPa ESE 1.0mph /  1.6km/h 2.0mph /  3.2km/h 78% 0.00in /  0mm
01:08 63.3 °F /  17.4 °C 56.3 °F /  13.5 °C 30.01in /  1016.1hPa ESE 2.0mph /  3.2km/h 2.0mph /  3.2km/h 78% 0.00in /  0mm
01:13 63.4 °F /  17.4 °C 56.4 °F /  13.6 °C 30.01in /  1016.1hPa ENE 2.0mph /  3.2km/h 3.0mph /  4.8km/h 78% 0.00in /  0mm
01:14 63.4 °F /  17.4 °C 56.4 °F /  13.6 °C 30.01in /  1016.1hPa East 3.0mph /  4.8km/h 3.0mph /  4.8km/h 78% 0.00in /  0mm
01:19 63.5 °F /  17.5 °C 56.2 °F /  13.4 °C 30.02in /  1016.5hPa East 3.0mph /  4.8km/h 3.0mph /  4.8km/h 77% 0.00in /  0mm
01:24 63.6 °F /  17.6 °C 56.3 °F /  13.5 °C 30.02in /  1016.5hPa NE 1.0mph /  1.6km/h 3.0mph /  4.8km/h 77% 0.00in /  0mm
01:29 63.4 °F /  17.4 °C 56.1 °F /  13.4 °C 30.02in /  1016.5hPa NE 2.0mph /  3.2km/h 2.0mph /  3.2km/h 77% 0.00in /  0mm
01:33 63.3 °F /  17.4 °C 56.0 °F /  13.3 °C 30.02in /  1016.5hPa NE 2.0mph /  3.2km/h 3.0mph /  4.8km/h 77% 0.00in /  0mm
01:34 63.2 °F /  17.3 °C 55.9 °F /  13.3 °C 30.02in /  1016.5hPa ENE 1.0mph /  1.6km/h 3.0mph /  4.8km/h 77% 0.00in /  0mm
01:35 63.2 °F /  17.3 °C 55.9 °F /  13.3 °C 30.02in /  1016.5hPa ENE 1.0mph /  1.6km/h 3.0mph /  4.8km/h 77% 0.00in /  0mm
01:40 63.1 °F /  17.3 °C 55.8 °F /  13.2 °C 30.02in /  1016.5hPa ESE 1.0mph /  1.6km/h 3.0mph /  4.8km/h 77% 0.00in /  0mm
01:45 62.9 °F /  17.2 °C 55.9 °F /  13.3 °C 30.01in /  1016.1hPa SE 2.0mph /  3.2km/h 3.0mph /  4.8km/h 78% 0.00in /  0mm
01:50 62.5 °F /  16.9 °C 55.9 °F /  13.3 °C 30.01in /  1016.1hPa ESE 3.0mph /  4.8km/h 3.0mph /  4.8km/h 79% 0.00in /  0mm
01:51 62.4 °F /  16.9 °C 55.8 °F /  13.2 °C 30.01in /  1016.1hPa ESE 2.0mph /  3.2km/h 3.0mph /  4.8km/h 79% 0.00in /  0mm
01:52 62.4 °F /  16.9 °C 55.8 °F /  13.2 °C 30.01in /  1016.1hPa SE 2.0mph /  3.2km/h 3.0mph /  4.8km/h 79% 0.00in /  0mm
01:56 62.3 °F /  16.8 °C 55.7 °F /  13.2 °C 30.01in /  1016.1hPa SE 2.0mph /  3.2km/h 3.0mph /  4.8km/h 79% 0.00in /  0mm
01:58 62.2 °F /  16.8 °C 55.6 °F /  13.1 °C 30.01in /  1016.1hPa SE 2.0mph /  3.2km/h 3.0mph /  4.8km/h 79% 0.00in /  0mm
02:03 62.2 °F /  16.8 °C 55.6 °F /  13.1 °C 30.01in /  1016.1hPa East 2.0mph /  3.2km/h 3.0mph /  4.8km/h 79% 0.00in /  0mm
02:08 62.2 °F /  16.8 °C 55.6 °F /  13.1 °C 30.01in /  1016.1hPa Calm   3.0mph /  4.8km/h 79% 0.00in /  0mm
02:13 62.3 °F /  16.8 °C 55.7 °F /  13.2 °C 30.02in /  1016.5hPa ENE 1.0mph /  1.6km/h 3.0mph /  4.8km/h 79% 0.00in /  0mm
02:18 62.5 °F /  16.9 °C 55.6 °F /  13.1 °C 30.02in /  1016.5hPa ENE 1.0mph /  1.6km/h 3.0mph /  4.8km/h 78% 0.00in /  0mm
02:23 62.7 °F /  17.1 °C 55.8 °F /  13.2 °C 30.02in /  1016.5hPa ENE 1.0mph /  1.6km/h 4.0mph /  6.4km/h 78% 0.00in /  0mm
02:28 62.9 °F /  17.2 °C 55.6 °F /  13.1 °C 30.02in /  1016.5hPa NE 2.0mph /  3.2km/h 3.0mph /  4.8km/h 77% 0.00in /  0mm
02:29 62.9 °F /  17.2 °C 55.6 °F /  13.1 °C 30.02in /  1016.5hPa ENE 2.0mph /  3.2km/h 3.0mph /  4.8km/h 77% 0.00in /  0mm
02:33 62.6 °F /  17 °C 55.7 °F /  13.2 °C 30.02in /  1016.5hPa NE 1.0mph /  1.6km/h 3.0mph /  4.8km/h 78% 0.00in /  0mm
02:34 62.5 °F /  16.9 °C 55.6 °F /  13.1 °C 30.02in /  1016.5hPa NE 2.0mph /  3.2km/h 3.0mph /  4.8km/h 78% 0.00in /  0mm
02:36 62.2 °F /  16.8 °C 55.3 °F /  12.9 °C 30.02in /  1016.5hPa NNE 2.0mph /  3.2km/h 2.0mph /  3.2km/h 78% 0.00in /  0mm
02:39 61.8 °F /  16.6 °C 55.2 °F /  12.9 °C 30.02in /  1016.5hPa NNE 2.0mph /  3.2km/h 3.0mph /  4.8km/h 79% 0.00in /  0mm
02:44 61.3 °F /  16.3 °C 55.1 °F /  12.8 °C 30.02in /  1016.5hPa NE 2.0mph /  3.2km/h 3.0mph /  4.8km/h 80% 0.00in /  0mm
02:49 61.1 °F /  16.2 °C 55.2 °F /  12.9 °C 30.02in /  1016.5hPa NE 2.0mph /  3.2km/h 3.0mph /  4.8km/h 81% 0.00in /  0mm
02:54 61.1 °F /  16.2 °C 55.2 °F /  12.9 °C 30.02in /  1016.5hPa NE 3.0mph /  4.8km/h 4.0mph /  6.4km/h 81% 0.00in /  0mm
02:55 61.1 °F /  16.2 °C 55.2 °F /  12.9 °C 30.02in /  1016.5hPa NE 3.0mph /  4.8km/h 4.0mph /  6.4km/h 81% 0.00in /  0mm
03:00 61.2 °F /  16.2 °C 55.0 °F /  12.8 °C 30.02in /  1016.5hPa NE 1.0mph /  1.6km/h 3.0mph /  4.8km/h 80% 0.00in /  0mm
03:01 61.2 °F /  16.2 °C 55.0 °F /  12.8 °C 30.02in /  1016.5hPa ENE 1.0mph /  1.6km/h 2.0mph /  3.2km/h 80% 0.00in /  0mm
03:05 61.3 °F /  16.3 °C 55.1 °F /  12.8 °C 30.02in /  1016.5hPa East 1.0mph /  1.6km/h 2.0mph /  3.2km/h 80% 0.00in /  0mm
03:10 61.4 °F /  16.3 °C 55.2 °F /  12.9 °C 30.01in /  1016.1hPa East 1.0mph /  1.6km/h 1.0mph /  1.6km/h 80% 0.00in /  0mm
03:15 61.1 °F /  16.2 °C 54.9 °F /  12.7 °C 30.01in /  1016.1hPa ESE 1.0mph /  1.6km/h 2.0mph /  3.2km/h 80% 0.00in /  0mm
03:16 61.1 °F /  16.2 °C 54.9 °F /  12.7 °C 30.01in /  1016.1hPa SE 2.0mph /  3.2km/h 2.0mph /  3.2km/h 80% 0.00in /  0mm
03:21 60.7 °F /  15.9 °C 54.8 °F /  12.7 °C 30.01in /  1016.1hPa SE 2.0mph /  3.2km/h 2.0mph /  3.2km/h 81% 0.00in /  0mm
03:27 60.8 °F /  16 °C 54.9 °F /  12.7 °C 30.01in /  1016.1hPa ESE 3.0mph /  4.8km/h 4.0mph /  6.4km/h 81% 0.00in /  0mm
03:29 60.9 °F /  16.1 °C 54.7 °F /  12.6 °C 30.00in /  1015.8hPa ESE 4.0mph /  6.4km/h 4.0mph /  6.4km/h 80% 0.00in /  0mm
03:32 61.3 °F /  16.3 °C 55.1 °F /  12.8 °C 30.00in /  1015.8hPa SE 2.0mph /  3.2km/h 5.0mph /  8km/h 80% 0.00in /  0mm
03:35 61.6 °F /  16.4 °C 55.0 °F /  12.8 °C 30.00in /  1015.8hPa SE 3.0mph /  4.8km/h 4.0mph /  6.4km/h 79% 0.00in /  0mm
03:37 61.6 °F /  16.4 °C 55.0 °F /  12.8 °C 30.00in /  1015.8hPa ESE 2.0mph /  3.2km/h 3.0mph /  4.8km/h 79% 0.00in /  0mm
03:40 61.7 °F /  16.5 °C 55.1 °F /  12.8 °C 30.00in /  1015.8hPa ESE 2.0mph /  3.2km/h 4.0mph /  6.4km/h 79% 0.00in /  0mm
03:45 61.5 °F /  16.4 °C 54.9 °F /  12.7 °C 30.00in /  1015.8hPa ESE 1.0mph /  1.6km/h 2.0mph /  3.2km/h 79% 0.00in /  0mm
03:50 61.7 °F /  16.5 °C 54.8 °F /  12.7 °C 30.00in /  1015.8hPa ESE 2.0mph /  3.2km/h 4.0mph /  6.4km/h 78% 0.00in /  0mm
03:51 61.7 °F /  16.5 °C 54.8 °F /  12.7 °C 30.00in /  1015.8hPa SE 2.0mph /  3.2km/h 4.0mph /  6.4km/h 78% 0.00in /  0mm
03:56 61.7 °F /  16.5 °C 55.1 °F /  12.8 °C 30.00in /  1015.8hPa ESE 1.0mph /  1.6km/h 2.0mph /  3.2km/h 79% 0.00in /  0mm
03:57 61.7 °F /  16.5 °C 55.1 °F /  12.8 °C 30.00in /  1015.8hPa ESE 1.0mph /  1.6km/h 2.0mph /  3.2km/h 79% 0.00in /  0mm
04:02 61.6 °F /  16.4 °C 55.0 °F /  12.8 °C 30.00in /  1015.8hPa ESE 2.0mph /  3.2km/h 2.0mph /  3.2km/h 79% 0.00in /  0mm
04:07 61.4 °F /  16.3 °C 54.8 °F /  12.7 °C 30.00in /  1015.8hPa ESE 1.0mph /  1.6km/h 3.0mph /  4.8km/h 79% 0.00in /  0mm
04:12 61.2 °F /  16.2 °C 54.6 °F /  12.6 °C 30.00in /  1015.8hPa SE 1.0mph /  1.6km/h 2.0mph /  3.2km/h 79% 0.00in /  0mm
04:17 60.8 °F /  16 °C 54.6 °F /  12.6 °C 30.00in /  1015.8hPa ESE 2.0mph /  3.2km/h 2.0mph /  3.2km/h 80% 0.00in /  0mm
04:22 60.8 °F /  16 °C 54.6 °F /  12.6 °C 30.00in /  1015.8hPa SE 2.0mph /  3.2km/h 3.0mph /  4.8km/h 80% 0.00in /  0mm
04:27 61.0 °F /  16.1 °C 54.8 °F /  12.7 °C 30.00in /  1015.8hPa ESE 2.0mph /  3.2km/h 2.0mph /  3.2km/h 80% 0.00in /  0mm
04:28 61.0 °F /  16.1 °C 54.8 °F /  12.7 °C 30.00in /  1015.8hPa SE 2.0mph /  3.2km/h 2.0mph /  3.2km/h 80% 0.00in /  0mm
04:32 61.1 °F /  16.2 °C 54.9 °F /  12.7 °C 30.00in /  1015.8hPa ESE 3.0mph /  4.8km/h 3.0mph /  4.8km/h 80% 0.00in /  0mm
04:33 61.1 °F /  16.2 °C 54.9 °F /  12.7 °C 30.00in /  1015.8hPa SE 2.0mph /  3.2km/h 3.0mph /  4.8km/h 80% 0.00in /  0mm
04:34 61.1 °F /  16.2 °C 54.9 °F /  12.7 °C 30.00in /  1015.8hPa ESE 2.0mph /  3.2km/h 3.0mph /  4.8km/h 80% 0.00in /  0mm
04:39 61.2 °F /  16.2 °C 55.0 °F /  12.8 °C 30.00in /  1015.8hPa ESE 3.0mph /  4.8km/h 4.0mph /  6.4km/h 80% 0.00in /  0mm
04:44 61.3 °F /  16.3 °C 55.1 °F /  12.8 °C 30.00in /  1015.8hPa SE 2.0mph /  3.2km/h 3.0mph /  4.8km/h 80% 0.00in /  0mm
04:49 61.4 °F /  16.3 °C 55.2 °F /  12.9 °C 30.00in /  1015.8hPa ESE 3.0mph /  4.8km/h 4.0mph /  6.4km/h 80% 0.00in /  0mm
04:54 61.3 °F /  16.3 °C 55.1 °F /  12.8 °C 30.00in /  1015.8hPa ESE 3.0mph /  4.8km/h 4.0mph /  6.4km/h 80% 0.00in /  0mm
04:55 61.3 °F /  16.3 °C 55.1 °F /  12.8 °C 30.00in /  1015.8hPa ESE 4.0mph /  6.4km/h 4.0mph /  6.4km/h 80% 0.00in /  0mm
04:59 61.1 °F /  16.2 °C 54.9 °F /  12.7 °C 30.00in /  1015.8hPa ESE 1.0mph /  1.6km/h 2.0mph /  3.2km/h 80% 0.00in /  0mm
05:04 60.9 °F /  16.1 °C 55.0 °F /  12.8 °C 30.00in /  1015.8hPa ESE 2.0mph /  3.2km/h 2.0mph /  3.2km/h 81% 0.00in /  0mm
05:05 60.9 °F /  16.1 °C 55.0 °F /  12.8 °C 30.00in /  1015.8hPa SE 2.0mph /  3.2km/h 2.0mph /  3.2km/h 81% 0.00in /  0mm
05:10 60.8 °F /  16 °C 54.9 °F /  12.7 °C 30.00in /  1015.8hPa SE 2.0mph /  3.2km/h 2.0mph /  3.2km/h 81% 0.00in /  0mm
05:15 61.1 °F /  16.2 °C 55.2 °F /  12.9 °C 30.00in /  1015.8hPa ESE 2.0mph /  3.2km/h 5.0mph /  8km/h 81% 0.00in /  0mm
05:20 61.3 °F /  16.3 °C 55.1 °F /  12.8 °C 29.99in /  1015.5hPa ESE 4.0mph /  6.4km/h 4.0mph /  6.4km/h 80% 0.00in /  0mm
05:26 61.5 °F /  16.4 °C 55.3 °F /  12.9 °C 30.00in /  1015.8hPa SE 3.0mph /  4.8km/h 4.0mph /  6.4km/h 80% 0.00in /  0mm
05:31 61.5 °F /  16.4 °C 55.3 °F /  12.9 °C 29.99in /  1015.5hPa ESE 3.0mph /  4.8km/h 5.0mph /  8km/h 80% 0.00in /  0mm
05:32 61.5 °F /  16.4 °C 55.3 °F /  12.9 °C 29.99in /  1015.5hPa ESE 4.0mph /  6.4km/h 4.0mph /  6.4km/h 80% 0.00in /  0mm
05:36 61.7 °F /  16.5 °C 55.1 °F /  12.8 °C 29.99in /  1015.5hPa ESE 4.0mph /  6.4km/h 5.0mph /  8km/h 79% 0.00in /  0mm
05:37 61.8 °F /  16.6 °C 55.2 °F /  12.9 °C 29.99in /  1015.5hPa SE 3.0mph /  4.8km/h 5.0mph /  8km/h 79% 0.00in /  0mm
05:42 62.1 °F /  16.7 °C 55.2 °F /  12.9 °C 29.99in /  1015.5hPa SE 5.0mph /  8km/h 7.0mph /  11.3km/h 78% 0.00in /  0mm
05:47 62.6 °F /  17 °C 54.9 °F /  12.7 °C 29.99in /  1015.5hPa ESE 6.0mph /  9.7km/h 6.0mph /  9.7km/h 76% 0.00in /  0mm
05:52 62.8 °F /  17.1 °C 55.1 °F /  12.8 °C 29.99in /  1015.5hPa ESE 4.0mph /  6.4km/h 6.0mph /  9.7km/h 76% 0.00in /  0mm
05:53 62.8 °F /  17.1 °C 55.1 °F /  12.8 °C 29.99in /  1015.5hPa East 4.0mph /  6.4km/h 6.0mph /  9.7km/h 76% 0.00in /  0mm
05:58 63.0 °F /  17.2 °C 55.0 °F /  12.8 °C 29.99in /  1015.5hPa ESE 6.0mph /  9.7km/h 7.0mph /  11.3km/h 75% 0.00in /  0mm
06:03 63.1 °F /  17.3 °C 55.1 °F /  12.8 °C 29.99in /  1015.5hPa SE 4.0mph /  6.4km/h 7.0mph /  11.3km/h 75% 0.00in /  0mm
06:04 63.0 °F /  17.2 °C 55.0 °F /  12.8 °C 29.99in /  1015.5hPa SE 5.0mph /  8km/h 7.0mph /  11.3km/h 75% 0.00in /  0mm
06:09 63.1 °F /  17.3 °C 54.7 °F /  12.6 °C 29.99in /  1015.5hPa ESE 4.0mph /  6.4km/h 6.0mph /  9.7km/h 74% 0.00in /  0mm
06:10 63.0 °F /  17.2 °C 55.0 °F /  12.8 °C 29.99in /  1015.5hPa SE 4.0mph /  6.4km/h 6.0mph /  9.7km/h 75% 0.00in /  0mm
06:14 63.0 °F /  17.2 °C 55.0 °F /  12.8 °C 29.99in /  1015.5hPa ESE 4.0mph /  6.4km/h 6.0mph /  9.7km/h 75% 0.00in /  0mm
06:19 62.5 °F /  16.9 °C 54.8 °F /  12.7 °C 29.99in /  1015.5hPa East 3.0mph /  4.8km/h 5.0mph /  8km/h 76% 0.00in /  0mm
06:24 62.0 °F /  16.7 °C 54.7 °F /  12.6 °C 29.99in /  1015.5hPa East 2.0mph /  3.2km/h 3.0mph /  4.8km/h 77% 0.00in /  0mm
06:29 61.7 °F /  16.5 °C 54.8 °F /  12.7 °C 30.00in /  1015.8hPa ESE 1.0mph /  1.6km/h 2.0mph /  3.2km/h 78% 0.00in /  0mm
06:30 61.6 °F /  16.4 °C 54.7 °F /  12.6 °C 30.00in /  1015.8hPa ESE 2.0mph /  3.2km/h 2.0mph /  3.2km/h 78% 0.00in /  0mm
06:34 61.5 °F /  16.4 °C 54.6 °F /  12.6 °C 30.00in /  1015.8hPa East 1.0mph /  1.6km/h 3.0mph /  4.8km/h 78% 0.00in /  0mm
06:35 61.5 °F /  16.4 °C 54.6 °F /  12.6 °C 30.00in /  1015.8hPa East 2.0mph /  3.2km/h 3.0mph /  4.8km/h 78% 0.00in /  0mm
06:36 61.5 °F /  16.4 °C 54.6 °F /  12.6 °C 30.00in /  1015.8hPa East 1.0mph /  1.6km/h 2.0mph /  3.2km/h 78% 0.00in /  0mm
06:41 61.4 °F /  16.3 °C 54.8 °F /  12.7 °C 30.00in /  1015.8hPa East 2.0mph /  3.2km/h 2.0mph /  3.2km/h 79% 0.00in /  0mm
06:46 61.2 °F /  16.2 °C 54.6 °F /  12.6 °C 30.00in /  1015.8hPa ESE 2.0mph /  3.2km/h 2.0mph /  3.2km/h 79% 0.00in /  0mm
06:51 61.1 °F /  16.2 °C 54.9 °F /  12.7 °C 30.00in /  1015.8hPa ESE 2.0mph /  3.2km/h 3.0mph /  4.8km/h 80% 0.00in /  0mm
06:56 60.9 °F /  16.1 °C 54.7 °F /  12.6 °C 30.00in /  1015.8hPa ESE 1.0mph /  1.6km/h 2.0mph /  3.2km/h 80% 0.00in /  0mm
07:01 60.9 °F /  16.1 °C 54.7 °F /  12.6 °C 30.00in /  1015.8hPa SE 2.0mph /  3.2km/h 2.0mph /  3.2km/h 80% 0.00in /  0mm
07:06 60.9 °F /  16.1 °C 54.7 °F /  12.6 °C 30.00in /  1015.8hPa SE 1.0mph /  1.6km/h 2.0mph /  3.2km/h 80% 0.00in /  0mm
07:07 60.9 °F /  16.1 °C 54.7 °F /  12.6 °C 30.00in /  1015.8hPa SE 2.0mph /  3.2km/h 2.0mph /  3.2km/h 80% 0.00in /  0mm
07:11 60.9 °F /  16.1 °C 54.7 °F /  12.6 °C 30.00in /  1015.8hPa SSE 1.0mph /  1.6km/h 3.0mph /  4.8km/h 80% 0.00in /  0mm
07:16 61.1 °F /  16.2 °C 54.9 °F /  12.7 °C 30.00in /  1015.8hPa SSE 1.0mph /  1.6km/h 2.0mph /  3.2km/h 80% 0.00in /  0mm
07:17 61.1 °F /  16.2 °C 54.9 °F /  12.7 °C 30.00in /  1015.8hPa SE 1.0mph /  1.6km/h 2.0mph /  3.2km/h 80% 0.00in /  0mm
07:22 61.3 °F /  16.3 °C 54.7 °F /  12.6 °C 30.00in /  1015.8hPa SSE 2.0mph /  3.2km/h 2.0mph /  3.2km/h 79% 0.00in /  0mm
07:27 61.6 °F /  16.4 °C 55.0 °F /  12.8 °C 30.00in /  1015.8hPa SSE 3.0mph /  4.8km/h 3.0mph /  4.8km/h 79% 0.00in /  0mm
07:29 61.7 °F /  16.5 °C 55.1 °F /  12.8 °C 30.00in /  1015.8hPa SSE 2.0mph /  3.2km/h 3.0mph /  4.8km/h 79% 0.00in /  0mm
07:33 62.1 °F /  16.7 °C 55.2 °F /  12.9 °C 30.00in /  1015.8hPa SSE 3.0mph /  4.8km/h 4.0mph /  6.4km/h 78% 0.00in /  0mm
07:35 62.3 °F /  16.8 °C 55.4 °F /  13 °C 30.01in /  1016.1hPa SSE 5.0mph /  8km/h 5.0mph /  8km/h 78% 0.00in /  0mm
07:36 62.4 °F /  16.9 °C 55.5 °F /  13.1 °C 30.00in /  1015.8hPa SE 2.0mph /  3.2km/h 5.0mph /  8km/h 78% 0.00in /  0mm
07:41 62.6 °F /  17 °C 55.7 °F /  13.2 °C 30.00in /  1015.8hPa SSE 3.0mph /  4.8km/h 4.0mph /  6.4km/h 78% 0.00in /  0mm
07:46 63.0 °F /  17.2 °C 55.7 °F /  13.2 °C 30.00in /  1015.8hPa SSE 5.0mph /  8km/h 5.0mph /  8km/h 77% 0.00in /  0mm
07:51 63.5 °F /  17.5 °C 56.2 °F /  13.4 °C 30.00in /  1015.8hPa SE 3.0mph /  4.8km/h 3.0mph /  4.8km/h 77% 0.00in /  0mm
07:52 63.6 °F /  17.6 °C 56.3 °F /  13.5 °C 30.00in /  1015.8hPa SE 3.0mph /  4.8km/h 3.0mph /  4.8km/h 77% 0.00in /  0mm
07:53 63.7 °F /  17.6 °C 56.4 °F /  13.6 °C 30.00in /  1015.8hPa SE 2.0mph /  3.2km/h 4.0mph /  6.4km/h 77% 0.00in /  0mm
07:58 64.0 °F /  17.8 °C 55.9 °F /  13.3 °C 30.01in /  1016.1hPa SE 5.0mph /  8km/h 5.0mph /  8km/h 75% 0.00in /  0mm
08:03 64.4 °F /  18 °C 56.3 °F /  13.5 °C 30.01in /  1016.1hPa SE 2.0mph /  3.2km/h 4.0mph /  6.4km/h 75% 0.00in /  0mm
08:08 64.9 °F /  18.3 °C 56.4 °F /  13.6 °C 30.01in /  1016.1hPa ESE 3.0mph /  4.8km/h 4.0mph /  6.4km/h 74% 0.00in /  0mm
08:13 65.4 °F /  18.6 °C 56.9 °F /  13.8 °C 30.02in /  1016.5hPa ESE 3.0mph /  4.8km/h 4.0mph /  6.4km/h 74% 0.00in /  0mm
08:14 65.4 °F /  18.6 °C 56.9 °F /  13.8 °C 30.02in /  1016.5hPa ESE 4.0mph /  6.4km/h 4.0mph /  6.4km/h 74% 0.00in /  0mm
08:19 65.7 °F /  18.7 °C 57.2 °F /  14 °C 30.02in /  1016.5hPa East 2.0mph /  3.2km/h 3.0mph /  4.8km/h 74% 0.00in /  0mm
08:24 65.9 °F /  18.8 °C 57.4 °F /  14.1 °C 30.02in /  1016.5hPa ESE 3.0mph /  4.8km/h 3.0mph /  4.8km/h 74% 0.00in /  0mm
08:29 66.2 °F /  19 °C 57.3 °F /  14.1 °C 30.02in /  1016.5hPa East 3.0mph /  4.8km/h 3.0mph /  4.8km/h 73% 0.00in /  0mm
08:34 66.2 °F /  19 °C 57.3 °F /  14.1 °C 30.02in /  1016.5hPa ENE 2.0mph /  3.2km/h 4.0mph /  6.4km/h 73% 0.00in /  0mm
08:35 66.1 °F /  18.9 °C 57.2 °F /  14 °C 30.02in /  1016.5hPa ESE 2.0mph /  3.2km/h 3.0mph /  4.8km/h 73% 0.00in /  0mm
08:38 66.3 °F /  19.1 °C 57.8 °F /  14.3 °C 30.02in /  1016.5hPa ESE 3.0mph /  4.8km/h 3.0mph /  4.8km/h 74% 0.00in /  0mm
08:43 66.5 °F /  19.2 °C 57.6 °F /  14.2 °C 30.02in /  1016.5hPa SE 1.0mph /  1.6km/h 3.0mph /  4.8km/h 73% 0.00in /  0mm
08:48 66.9 °F /  19.4 °C 58.3 °F /  14.6 °C 30.02in /  1016.5hPa SSW 2.0mph /  3.2km/h 4.0mph /  6.4km/h 74% 0.00in /  0mm
08:53 67.6 °F /  19.8 °C 57.9 °F /  14.4 °C 30.02in /  1016.5hPa SE 2.0mph /  3.2km/h 6.0mph /  9.7km/h 71% 0.00in /  0mm
08:54 67.6 °F /  19.8 °C 58.3 °F /  14.6 °C 30.02in /  1016.5hPa SE 4.0mph /  6.4km/h 6.0mph /  9.7km/h 72% 0.00in /  0mm
08:56 67.8 °F /  19.9 °C 58.1 °F /  14.5 °C 30.02in /  1016.5hPa SE 2.0mph /  3.2km/h 4.0mph /  6.4km/h 71% 0.00in /  0mm
08:58 68.2 °F /  20.1 °C 58.5 °F /  14.7 °C 30.02in /  1016.5hPa SSE 3.0mph /  4.8km/h 4.0mph /  6.4km/h 71% 0.00in /  0mm
09:03 68.5 °F /  20.3 °C 57.5 °F /  14.2 °C 30.03in /  1016.8hPa ESE 2.0mph /  3.2km/h 4.0mph /  6.4km/h 68% 0.00in /  0mm
09:08 68.6 °F /  20.3 °C 58.4 °F /  14.7 °C 30.03in /  1016.8hPa SE 1.0mph /  1.6km/h 5.0mph /  8km/h 70% 0.00in /  0mm
09:14 69.2 °F /  20.7 °C 58.2 °F /  14.6 °C 30.03in /  1016.8hPa SE 5.0mph /  8km/h 7.0mph /  11.3km/h 68% 0.00in /  0mm
09:19 69.5 °F /  20.8 °C 57.7 °F /  14.3 °C 30.03in /  1016.8hPa ESE 2.0mph /  3.2km/h 4.0mph /  6.4km/h 66% 0.00in /  0mm
09:24 70.1 °F /  21.2 °C 58.7 °F /  14.8 °C 30.03in /  1016.8hPa ESE 4.0mph /  6.4km/h 7.0mph /  11.3km/h 67% 0.00in /  0mm
09:29 70.4 °F /  21.3 °C 58.9 °F /  14.9 °C 30.03in /  1016.8hPa SE 3.0mph /  4.8km/h 7.0mph /  11.3km/h 67% 0.00in /  0mm
09:34 70.8 °F /  21.6 °C 57.2 °F /  14 °C 30.03in /  1016.8hPa SSE 5.0mph /  8km/h 8.0mph /  12.9km/h 62% 0.00in /  0mm
09:37 71.1 °F /  21.7 °C 58.8 °F /  14.9 °C 30.03in /  1016.8hPa South 3.0mph /  4.8km/h 6.0mph /  9.7km/h 65% 0.00in /  0mm
09:42 71.4 °F /  21.9 °C 58.2 °F /  14.6 °C 30.03in /  1016.8hPa SSE 4.0mph /  6.4km/h 7.0mph /  11.3km/h 63% 0.00in /  0mm
09:47 71.6 °F /  22 °C 57.9 °F /  14.4 °C 30.03in /  1016.8hPa SSE 7.0mph /  11.3km/h 8.0mph /  12.9km/h 62% 0.00in /  0mm
09:52 72.1 °F /  22.3 °C 57.5 °F /  14.2 °C 30.03in /  1016.8hPa SSE 6.0mph /  9.7km/h 8.0mph /  12.9km/h 60% 0.00in /  0mm
09:53 72.2 °F /  22.3 °C 58.9 °F /  14.9 °C 30.03in /  1016.8hPa SSE 6.0mph /  9.7km/h 8.0mph /  12.9km/h 63% 0.00in /  0mm
09:54 72.3 °F /  22.4 °C 57.7 °F /  14.3 °C 30.03in /  1016.8hPa SE 5.0mph /  8km/h 8.0mph /  12.9km/h 60% 0.00in /  0mm
09:58 72.4 °F /  22.4 °C 58.2 °F /  14.6 °C 30.03in /  1016.8hPa SSW 6.0mph /  9.7km/h 6.0mph /  9.7km/h 61% 0.00in /  0mm
10:03 72.8 °F /  22.7 °C 57.7 °F /  14.3 °C 30.03in /  1016.8hPa SE 4.0mph /  6.4km/h 6.0mph /  9.7km/h 59% 0.00in /  0mm
10:08 72.9 °F /  22.7 °C 59.1 °F /  15.1 °C 30.03in /  1016.8hPa ESE 5.0mph /  8km/h 7.0mph /  11.3km/h 62% 0.00in /  0mm
10:13 73.4 °F /  23 °C 58.2 °F /  14.6 °C 30.03in /  1016.8hPa ESE 5.0mph /  8km/h 6.0mph /  9.7km/h 59% 0.00in /  0mm
10:18 73.8 °F /  23.2 °C 57.1 °F /  13.9 °C 30.03in /  1016.8hPa ESE 8.0mph /  12.9km/h 9.0mph /  14.5km/h 56% 0.00in /  0mm
10:23 73.7 °F /  23.2 °C 58.0 °F /  14.4 °C 30.03in /  1016.8hPa South 2.0mph /  3.2km/h 8.0mph /  12.9km/h 58% 0.00in /  0mm
10:28 74.1 °F /  23.4 °C 59.8 °F /  15.4 °C 30.03in /  1016.8hPa SSW 5.0mph /  8km/h 8.0mph /  12.9km/h 61% 0.00in /  0mm
10:29 74.1 °F /  23.4 °C 59.3 °F /  15.2 °C 30.02in /  1016.5hPa SW 6.0mph /  9.7km/h 8.0mph /  12.9km/h 60% 0.00in /  0mm
10:30 74.2 °F /  23.4 °C 58.5 °F /  14.7 °C 30.03in /  1016.8hPa SSW 4.0mph /  6.4km/h 7.0mph /  11.3km/h 58% 0.00in /  0mm
10:33 74.4 °F /  23.6 °C 58.7 °F /  14.8 °C 30.02in /  1016.5hPa ESE 4.0mph /  6.4km/h 8.0mph /  12.9km/h 58% 0.00in /  0mm
10:34 74.5 °F /  23.6 °C 58.8 °F /  14.9 °C 30.02in /  1016.5hPa SSE 6.0mph /  9.7km/h 8.0mph /  12.9km/h 58% 0.00in /  0mm
10:35 74.5 °F /  23.6 °C 58.8 °F /  14.9 °C 30.02in /  1016.5hPa SSW 8.0mph /  12.9km/h 8.0mph /  12.9km/h 58% 0.00in /  0mm
10:36 74.5 °F /  23.6 °C 58.8 °F /  14.9 °C 30.02in /  1016.5hPa South 7.0mph /  11.3km/h 8.0mph /  12.9km/h 58% 0.00in /  0mm
10:40 75.2 °F /  24 °C 59.4 °F /  15.2 °C 30.02in /  1016.5hPa SE 6.0mph /  9.7km/h 6.0mph /  9.7km/h 58% 0.00in /  0mm
10:45 75.5 °F /  24.2 °C 58.7 °F /  14.8 °C 30.02in /  1016.5hPa South 6.0mph /  9.7km/h 9.0mph /  14.5km/h 56% 0.00in /  0mm
10:50 75.8 °F /  24.3 °C 59.0 °F /  15 °C 30.02in /  1016.5hPa SSE 3.0mph /  4.8km/h 9.0mph /  14.5km/h 56% 0.00in /  0mm
10:51 75.8 °F /  24.3 °C 59.0 °F /  15 °C 30.02in /  1016.5hPa SSW 4.0mph /  6.4km/h 9.0mph /  14.5km/h 56% 0.00in /  0mm
10:54 75.6 °F /  24.2 °C 57.3 °F /  14.1 °C 30.02in /  1016.5hPa SSE 5.0mph /  8km/h 7.0mph /  11.3km/h 53% 0.00in /  0mm
10:56 75.7 °F /  24.3 °C 58.9 °F /  14.9 °C 30.03in /  1016.8hPa SSE 4.0mph /  6.4km/h 7.0mph /  11.3km/h 56% 0.00in /  0mm
10:57 75.8 °F /  24.3 °C 58.5 °F /  14.7 °C 30.02in /  1016.5hPa SSE 6.0mph /  9.7km/h 6.0mph /  9.7km/h 55% 0.00in /  0mm
10:59 75.9 °F /  24.4 °C 58.6 °F /  14.8 °C 30.03in /  1016.8hPa SW 7.0mph /  11.3km/h 8.0mph /  12.9km/h 55% 0.00in /  0mm
11:04 76.1 °F /  24.5 °C 58.8 °F /  14.9 °C 30.02in /  1016.5hPa SSE 3.0mph /  4.8km/h 7.0mph /  11.3km/h 55% 0.00in /  0mm
11:05 76.1 °F /  24.5 °C 58.8 °F /  14.9 °C 30.02in /  1016.5hPa SSE 2.0mph /  3.2km/h 7.0mph /  11.3km/h 55% 0.00in /  0mm
11:09 76.4 °F /  24.7 °C 59.1 °F /  15.1 °C 30.02in /  1016.5hPa SSE 4.0mph /  6.4km/h 7.0mph /  11.3km/h 55% 0.00in /  0mm
11:14 76.6 °F /  24.8 °C 59.2 °F /  15.1 °C 30.02in /  1016.5hPa SSE 4.0mph /  6.4km/h 8.0mph /  12.9km/h 55% 0.00in /  0mm
11:15 76.5 °F /  24.7 °C 58.1 °F /  14.5 °C 30.02in /  1016.5hPa SE 3.0mph /  4.8km/h 8.0mph /  12.9km/h 53% 0.00in /  0mm
11:20 76.9 °F /  24.9 °C 58.5 °F /  14.7 °C 30.02in /  1016.5hPa South 3.0mph /  4.8km/h 8.0mph /  12.9km/h 53% 0.00in /  0mm
11:25 76.8 °F /  24.9 °C 59.9 °F /  15.5 °C 30.02in /  1016.5hPa SE 7.0mph /  11.3km/h 9.0mph /  14.5km/h 56% 0.00in /  0mm
11:30 76.9 °F /  24.9 °C 60.0 °F /  15.6 °C 30.02in /  1016.5hPa SE 5.0mph /  8km/h 8.0mph /  12.9km/h 56% 0.00in /  0mm
11:31 76.8 °F /  24.9 °C 58.9 °F /  14.9 °C 30.02in /  1016.5hPa SE 4.0mph /  6.4km/h 8.0mph /  12.9km/h 54% 0.00in /  0mm
11:35 77.0 °F /  25 °C 59.6 °F /  15.3 °C 30.02in /  1016.5hPa SSE 4.0mph /  6.4km/h 7.0mph /  11.3km/h 55% 0.00in /  0mm
11:36 77.1 °F /  25.1 °C 59.2 °F /  15.1 °C 30.02in /  1016.5hPa SSW 3.0mph /  4.8km/h 7.0mph /  11.3km/h 54% 0.00in /  0mm
11:41 77.2 °F /  25.1 °C 58.8 °F /  14.9 °C 30.02in /  1016.5hPa ESE 3.0mph /  4.8km/h 7.0mph /  11.3km/h 53% 0.00in /  0mm
11:46 77.9 °F /  25.5 °C 59.9 °F /  15.5 °C 30.02in /  1016.5hPa SE 6.0mph /  9.7km/h 7.0mph /  11.3km/h 54% 0.00in /  0mm
11:51 78.1 °F /  25.6 °C 60.1 °F /  15.6 °C 30.01in /  1016.1hPa SSE 7.0mph /  11.3km/h 7.0mph /  11.3km/h 54% 0.00in /  0mm
11:52 78.1 °F /  25.6 °C 60.1 °F /  15.6 °C 30.01in /  1016.1hPa SSE 5.0mph /  8km/h 7.0mph /  11.3km/h 54% 0.00in /  0mm
11:56 78.3 °F /  25.7 °C 58.7 °F /  14.8 °C 30.01in /  1016.1hPa SE 6.0mph /  9.7km/h 8.0mph /  12.9km/h 51% 0.00in /  0mm
11:57 78.2 °F /  25.7 °C 58.6 °F /  14.8 °C 30.01in /  1016.1hPa ESE 6.0mph /  9.7km/h 8.0mph /  12.9km/h 51% 0.00in /  0mm
12:02 78.2 °F /  25.7 °C 61.7 °F /  16.5 °C 30.02in /  1016.5hPa SE 5.0mph /  8km/h 9.0mph /  14.5km/h 57% 0.00in /  0mm
12:07 78.5 °F /  25.8 °C 59.4 °F /  15.2 °C 30.01in /  1016.1hPa SE 6.0mph /  9.7km/h 7.0mph /  11.3km/h 52% 0.00in /  0mm
12:12 78.7 °F /  25.9 °C 58.5 °F /  14.7 °C 30.01in /  1016.1hPa SE 4.0mph /  6.4km/h 7.0mph /  11.3km/h 50% 0.00in /  0mm
12:17 79.0 °F /  26.1 °C 58.8 °F /  14.9 °C 30.01in /  1016.1hPa SSE 5.0mph /  8km/h 7.0mph /  11.3km/h 50% 0.00in /  0mm
12:22 79.3 °F /  26.3 °C 61.2 °F /  16.2 °C 30.01in /  1016.1hPa SE 8.0mph /  12.9km/h 9.0mph /  14.5km/h 54% 0.00in /  0mm
12:27 79.2 °F /  26.2 °C 60.1 °F /  15.6 °C 30.01in /  1016.1hPa SE 6.0mph /  9.7km/h 10.0mph /  16.1km/h 52% 0.00in /  0mm
12:28 79.2 °F /  26.2 °C 60.1 °F /  15.6 °C 30.01in /  1016.1hPa SE 5.0mph /  8km/h 10.0mph /  16.1km/h 52% 0.00in /  0mm
12:32 79.7 °F /  26.5 °C 59.4 °F /  15.2 °C 30.00in /  1015.8hPa SE 5.0mph /  8km/h 8.0mph /  12.9km/h 50% 0.00in /  0mm
12:33 79.7 °F /  26.5 °C 59.4 °F /  15.2 °C 30.00in /  1015.8hPa SSE 7.0mph /  11.3km/h 8.0mph /  12.9km/h 50% 0.00in /  0mm
12:34 79.9 °F /  26.6 °C 60.7 °F /  15.9 °C 30.01in /  1016.1hPa SE 7.0mph /  11.3km/h 10.0mph /  16.1km/h 52% 0.00in /  0mm
12:38 79.9 °F /  26.6 °C 57.9 °F /  14.4 °C 30.01in /  1016.1hPa SSW 6.0mph /  9.7km/h 7.0mph /  11.3km/h 47% 0.00in /  0mm
12:43 80.3 °F /  26.8 °C 58.8 °F /  14.9 °C 30.01in /  1016.1hPa SW 2.0mph /  3.2km/h 6.0mph /  9.7km/h 48% 0.00in /  0mm
12:44 80.3 °F /  26.8 °C 60.5 °F /  15.8 °C 30.00in /  1015.8hPa SE 4.0mph /  6.4km/h 6.0mph /  9.7km/h 51% 0.00in /  0mm
12:49 80.7 °F /  27.1 °C 60.3 °F /  15.7 °C 30.00in /  1015.8hPa SSE 3.0mph /  4.8km/h 6.0mph /  9.7km/h 50% 0.00in /  0mm
12:55 80.4 °F /  26.9 °C 60.1 °F /  15.6 °C 30.00in /  1015.8hPa SSE 5.0mph /  8km/h 10.0mph /  16.1km/h 50% 0.00in /  0mm
12:58 80.7 °F /  27.1 °C 63.0 °F /  17.2 °C 30.00in /  1015.8hPa ESE 6.0mph /  9.7km/h 9.0mph /  14.5km/h 55% 0.00in /  0mm
13:00 80.8 °F /  27.1 °C 58.7 °F /  14.8 °C 30.00in /  1015.8hPa SSW 4.0mph /  6.4km/h 9.0mph /  14.5km/h 47% 0.00in /  0mm
13:03 80.8 °F /  27.1 °C 58.1 °F /  14.5 °C 30.01in /  1016.1hPa SSE 6.0mph /  9.7km/h 8.0mph /  12.9km/h 46% 0.00in /  0mm
13:08 81.1 °F /  27.3 °C 58.4 °F /  14.7 °C 30.00in /  1015.8hPa SSE 4.0mph /  6.4km/h 8.0mph /  12.9km/h 46% 0.00in /  0mm
13:13 81.5 °F /  27.5 °C 61.1 °F /  16.2 °C 30.00in /  1015.8hPa SW 1.0mph /  1.6km/h 3.0mph /  4.8km/h 50% 0.00in /  0mm
13:18 82.0 °F /  27.8 °C 62.1 °F /  16.7 °C 30.00in /  1015.8hPa SW 3.0mph /  4.8km/h 6.0mph /  9.7km/h 51% 0.00in /  0mm
13:23 81.8 °F /  27.7 °C 59.0 °F /  15 °C 30.00in /  1015.8hPa South 6.0mph /  9.7km/h 6.0mph /  9.7km/h 46% 0.00in /  0mm
13:28 81.9 °F /  27.7 °C 59.1 °F /  15.1 °C 30.00in /  1015.8hPa SW 5.0mph /  8km/h 7.0mph /  11.3km/h 46% 0.00in /  0mm
13:29 81.9 °F /  27.7 °C 59.1 °F /  15.1 °C 30.00in /  1015.8hPa SW 5.0mph /  8km/h 7.0mph /  11.3km/h 46% 0.00in /  0mm
13:33 81.8 °F /  27.7 °C 59.6 °F /  15.3 °C 30.00in /  1015.8hPa SW 4.0mph /  6.4km/h 8.0mph /  12.9km/h 47% 0.00in /  0mm
13:36 81.9 °F /  27.7 °C 60.9 °F /  16.1 °C 30.00in /  1015.8hPa WSW 3.0mph /  4.8km/h 6.0mph /  9.7km/h 49% 0.00in /  0mm
13:39 82.2 °F /  27.9 °C 58.1 °F /  14.5 °C 30.00in /  1015.8hPa SE 4.0mph /  6.4km/h 9.0mph /  14.5km/h 44% 0.00in /  0mm
13:44 82.0 °F /  27.8 °C 59.2 °F /  15.1 °C 29.99in /  1015.5hPa SE 2.0mph /  3.2km/h 6.0mph /  9.7km/h 46% 0.00in /  0mm
13:46 82.0 °F /  27.8 °C 59.2 °F /  15.1 °C 29.99in /  1015.5hPa South 4.0mph /  6.4km/h 8.0mph /  12.9km/h 46% 0.00in /  0mm
13:49 82.2 °F /  27.9 °C 62.3 °F /  16.8 °C 29.99in /  1015.5hPa South 4.0mph /  6.4km/h 5.0mph /  8km/h 51% 0.00in /  0mm
13:54 82.4 °F /  28 °C 60.8 °F /  16 °C 29.99in /  1015.5hPa SSW 2.0mph /  3.2km/h 5.0mph /  8km/h 48% 0.00in /  0mm
13:55 82.4 °F /  28 °C 61.9 °F /  16.6 °C 29.99in /  1015.5hPa SSW 3.0mph /  4.8km/h 5.0mph /  8km/h 50% 0.00in /  0mm
13:57 82.5 °F /  28.1 °C 60.3 °F /  15.7 °C 29.98in /  1015.1hPa SSW 2.0mph /  3.2km/h 4.0mph /  6.4km/h 47% 0.00in /  0mm
14:00 82.5 °F /  28.1 °C 62.6 °F /  17 °C 29.98in /  1015.1hPa ESE 7.0mph /  11.3km/h 10.0mph /  16.1km/h 51% 0.00in /  0mm
14:02 82.2 °F /  27.9 °C 61.7 °F /  16.5 °C 29.98in /  1015.1hPa ESE 9.0mph /  14.5km/h 11.0mph /  17.7km/h 50% 0.00in /  0mm
14:07 81.7 °F /  27.6 °C 58.9 °F /  14.9 °C 29.98in /  1015.1hPa Calm   8.0mph /  12.9km/h 46% 0.00in /  0mm
14:08 81.7 °F /  27.6 °C 58.9 °F /  14.9 °C 29.98in /  1015.1hPa Calm   8.0mph /  12.9km/h 46% 0.00in /  0mm
14:13 82.3 °F /  27.9 °C 59.5 °F /  15.3 °C 29.98in /  1015.1hPa South 3.0mph /  4.8km/h 6.0mph /  9.7km/h 46% 0.00in /  0mm
14:18 82.8 °F /  28.2 °C 62.3 °F /  16.8 °C 29.98in /  1015.1hPa SE 5.0mph /  8km/h 10.0mph /  16.1km/h 50% 0.00in /  0mm
14:23 82.3 °F /  27.9 °C 58.9 °F /  14.9 °C 29.98in /  1015.1hPa ESE 4.0mph /  6.4km/h 12.0mph /  19.3km/h 45% 0.00in /  0mm
14:28 82.4 °F /  28 °C 59.6 °F /  15.3 °C 29.97in /  1014.8hPa SSE 3.0mph /  4.8km/h 7.0mph /  11.3km/h 46% 0.00in /  0mm
14:29 82.5 °F /  28.1 °C 59.7 °F /  15.4 °C 29.97in /  1014.8hPa SSE 2.0mph /  3.2km/h 7.0mph /  11.3km/h 46% 0.00in /  0mm
14:30 82.5 °F /  28.1 °C 59.7 °F /  15.4 °C 29.97in /  1014.8hPa East 7.0mph /  11.3km/h 7.0mph /  11.3km/h 46% 0.00in /  0mm
14:34 82.4 °F /  28 °C 60.8 °F /  16 °C 29.97in /  1014.8hPa SE 6.0mph /  9.7km/h 9.0mph /  14.5km/h 48% 0.00in /  0mm
14:35 82.4 °F /  28 °C 59.0 °F /  15 °C 29.97in /  1014.8hPa ESE 6.0mph /  9.7km/h 9.0mph /  14.5km/h 45% 0.00in /  0mm
14:36 82.4 °F /  28 °C 60.2 °F /  15.7 °C 29.97in /  1014.8hPa South 3.0mph /  4.8km/h 7.0mph /  11.3km/h 47% 0.00in /  0mm
14:41 82.7 °F /  28.2 °C 61.6 °F /  16.4 °C 29.97in /  1014.8hPa SE 3.0mph /  4.8km/h 9.0mph /  14.5km/h 49% 0.00in /  0mm
14:42 82.7 °F /  28.2 °C 61.6 °F /  16.4 °C 29.97in /  1014.8hPa SE 4.0mph /  6.4km/h 9.0mph /  14.5km/h 49% 0.00in /  0mm
14:47 82.8 °F /  28.2 °C 60.5 °F /  15.8 °C 29.97in /  1014.8hPa SE 5.0mph /  8km/h 7.0mph /  11.3km/h 47% 0.00in /  0mm
14:52 83.2 °F /  28.4 °C 59.7 °F /  15.4 °C 29.97in /  1014.8hPa SSW 6.0mph /  9.7km/h 9.0mph /  14.5km/h 45% 0.00in /  0mm
14:57 83.4 °F /  28.6 °C 61.7 °F /  16.5 °C 29.97in /  1014.8hPa East 6.0mph /  9.7km/h 9.0mph /  14.5km/h 48% 0.00in /  0mm
14:58 83.3 °F /  28.5 °C 59.1 °F /  15.1 °C 29.97in /  1014.8hPa ESE 6.0mph /  9.7km/h 8.0mph /  12.9km/h 44% 0.00in /  0mm
15:03 83.5 °F /  28.6 °C 60.6 °F /  15.9 °C 29.97in /  1014.8hPa South 3.0mph /  4.8km/h 9.0mph /  14.5km/h 46% 0.00in /  0mm
15:08 83.2 °F /  28.4 °C 60.3 °F /  15.7 °C 29.97in /  1014.8hPa ESE 9.0mph /  14.5km/h 10.0mph /  16.1km/h 46% 0.00in /  0mm
15:13 82.9 °F /  28.3 °C 58.8 °F /  14.9 °C 29.97in /  1014.8hPa SE 5.0mph /  8km/h 9.0mph /  14.5km/h 44% 0.00in /  0mm
15:18 82.8 °F /  28.2 °C 59.9 °F /  15.5 °C 29.97in /  1014.8hPa SE 6.0mph /  9.7km/h 6.0mph /  9.7km/h 46% 0.00in /  0mm
15:23 83.3 °F /  28.5 °C 59.1 °F /  15.1 °C 29.97in /  1014.8hPa SSW 5.0mph /  8km/h 8.0mph /  12.9km/h 44% 0.00in /  0mm
15:28 83.3 °F /  28.5 °C 59.8 °F /  15.4 °C 29.97in /  1014.8hPa East 3.0mph /  4.8km/h 8.0mph /  12.9km/h 45% 0.00in /  0mm
15:29 83.3 °F /  28.5 °C 58.5 °F /  14.7 °C 29.96in /  1014.4hPa NE 2.0mph /  3.2km/h 8.0mph /  12.9km/h 43% 0.00in /  0mm
15:34 83.6 °F /  28.7 °C 60.7 °F /  15.9 °C 29.96in /  1014.4hPa SSW 4.0mph /  6.4km/h 10.0mph /  16.1km/h 46% 0.00in /  0mm
15:37 83.9 °F /  28.8 °C 59.7 °F /  15.4 °C 29.96in /  1014.4hPa SSE 9.0mph /  14.5km/h 9.0mph /  14.5km/h 44% 0.00in /  0mm
15:39 83.9 °F /  28.8 °C 59.0 °F /  15 °C 29.96in /  1014.4hPa SE 6.0mph /  9.7km/h 9.0mph /  14.5km/h 43% 0.00in /  0mm
15:44 84.1 °F /  28.9 °C 61.7 °F /  16.5 °C 29.96in /  1014.4hPa South 5.0mph /  8km/h 8.0mph /  12.9km/h 47% 0.00in /  0mm
15:49 84.1 °F /  28.9 °C 58.5 °F /  14.7 °C 29.95in /  1014.1hPa SSE 6.0mph /  9.7km/h 8.0mph /  12.9km/h 42% 0.00in /  0mm
15:54 84.0 °F /  28.9 °C 59.1 °F /  15.1 °C 29.95in /  1014.1hPa SSW 9.0mph /  14.5km/h 9.0mph /  14.5km/h 43% 0.00in /  0mm
15:56 84.0 °F /  28.9 °C 60.4 °F /  15.8 °C 29.95in /  1014.1hPa South 4.0mph /  6.4km/h 9.0mph /  14.5km/h 45% 0.00in /  0mm
15:59 84.1 °F /  28.9 °C 61.1 °F /  16.2 °C 29.95in /  1014.1hPa SE 4.0mph /  6.4km/h 6.0mph /  9.7km/h 46% 0.00in /  0mm
16:01 84.2 °F /  29 °C 58.0 °F /  14.4 °C 29.95in /  1014.1hPa SSE 4.0mph /  6.4km/h 7.0mph /  11.3km/h 41% 0.00in /  0mm
16:06 84.2 °F /  29 °C 59.3 °F /  15.2 °C 29.94in /  1013.8hPa SE 6.0mph /  9.7km/h 8.0mph /  12.9km/h 43% 0.00in /  0mm
16:11 84.3 °F /  29.1 °C 58.1 °F /  14.5 °C 29.95in /  1014.1hPa SSE 4.0mph /  6.4km/h 11.0mph /  17.7km/h 41% 0.00in /  0mm
16:16 84.2 °F /  29 °C 59.3 °F /  15.2 °C 29.95in /  1014.1hPa SSW 6.0mph /  9.7km/h 8.0mph /  12.9km/h 43% 0.00in /  0mm
16:21 84.3 °F /  29.1 °C 58.7 °F /  14.8 °C 29.94in /  1013.8hPa SW 7.0mph /  11.3km/h 7.0mph /  11.3km/h 42% 0.00in /  0mm
16:26 84.4 °F /  29.1 °C 59.5 °F /  15.3 °C 29.94in /  1013.8hPa SE 2.0mph /  3.2km/h 5.0mph /  8km/h 43% 0.00in /  0mm
16:27 84.4 °F /  29.1 °C 60.8 °F /  16 °C 29.94in /  1013.8hPa ESE 7.0mph /  11.3km/h 7.0mph /  11.3km/h 45% 0.00in /  0mm
16:28 84.3 °F /  29.1 °C 58.7 °F /  14.8 °C 29.94in /  1013.8hPa SE 9.0mph /  14.5km/h 9.0mph /  14.5km/h 42% 0.00in /  0mm
16:33 84.2 °F /  29 °C 60.0 °F /  15.6 °C 29.94in /  1013.8hPa SSE 5.0mph /  8km/h 9.0mph /  14.5km/h 44% 0.00in /  0mm
16:37 84.3 °F /  29.1 °C 59.4 °F /  15.2 °C 29.94in /  1013.8hPa SE 4.0mph /  6.4km/h 5.0mph /  8km/h 43% 0.00in /  0mm
16:38 84.4 °F /  29.1 °C 59.5 °F /  15.3 °C 29.94in /  1013.8hPa SSE 3.0mph /  4.8km/h 4.0mph /  6.4km/h 43% 0.00in /  0mm
16:43 84.6 °F /  29.2 °C 59.0 °F /  15 °C 29.93in /  1013.4hPa SE 2.0mph /  3.2km/h 4.0mph /  6.4km/h 42% 0.00in /  0mm
16:48 84.5 °F /  29.2 °C 58.9 °F /  14.9 °C 29.93in /  1013.4hPa SSE 4.0mph /  6.4km/h 7.0mph /  11.3km/h 42% 0.00in /  0mm
16:53 84.5 °F /  29.2 °C 60.8 °F /  16 °C 29.93in /  1013.4hPa SSE 3.0mph /  4.8km/h 5.0mph /  8km/h 45% 0.00in /  0mm
16:54 84.6 °F /  29.2 °C 60.3 °F /  15.7 °C 29.93in /  1013.4hPa ESE 4.0mph /  6.4km/h 5.0mph /  8km/h 44% 0.00in /  0mm
16:59 84.1 °F /  28.9 °C 58.5 °F /  14.7 °C 29.93in /  1013.4hPa ENE 6.0mph /  9.7km/h 8.0mph /  12.9km/h 42% 0.00in /  0mm
17:04 83.8 °F /  28.8 °C 60.8 °F /  16 °C 29.93in /  1013.4hPa East 6.0mph /  9.7km/h 8.0mph /  12.9km/h 46% 0.00in /  0mm
17:09 83.9 °F /  28.8 °C 59.7 °F /  15.4 °C 29.93in /  1013.4hPa SE 5.0mph /  8km/h 7.0mph /  11.3km/h 44% 0.00in /  0mm
17:14 84.0 °F /  28.9 °C 62.2 °F /  16.8 °C 29.93in /  1013.4hPa SE 7.0mph /  11.3km/h 7.0mph /  11.3km/h 48% 0.00in /  0mm
17:19 83.8 °F /  28.8 °C 59.6 °F /  15.3 °C 29.93in /  1013.4hPa SSE 6.0mph /  9.7km/h 9.0mph /  14.5km/h 44% 0.00in /  0mm
17:24 83.8 °F /  28.8 °C 62.0 °F /  16.7 °C 29.93in /  1013.4hPa SE 5.0mph /  8km/h 10.0mph /  16.1km/h 48% 0.00in /  0mm
17:29 83.9 °F /  28.8 °C 60.3 °F /  15.7 °C 29.93in /  1013.4hPa SSE 4.0mph /  6.4km/h 5.0mph /  8km/h 45% 0.00in /  0mm
17:30 83.9 °F /  28.8 °C 60.3 °F /  15.7 °C 29.93in /  1013.4hPa SE 6.0mph /  9.7km/h 6.0mph /  9.7km/h 45% 0.00in /  0mm
17:34 84.1 °F /  28.9 °C 58.5 °F /  14.7 °C 29.93in /  1013.4hPa SSE 3.0mph /  4.8km/h 5.0mph /  8km/h 42% 0.00in /  0mm
17:36 84.1 °F /  28.9 °C 61.1 °F /  16.2 °C 29.93in /  1013.4hPa SE 4.0mph /  6.4km/h 5.0mph /  8km/h 46% 0.00in /  0mm
17:41 84.3 °F /  29.1 °C 59.4 °F /  15.2 °C 29.93in /  1013.4hPa SSE 5.0mph /  8km/h 7.0mph /  11.3km/h 43% 0.00in /  0mm
17:46 84.0 °F /  28.9 °C 58.5 °F /  14.7 °C 29.93in /  1013.4hPa ESE 8.0mph /  12.9km/h 9.0mph /  14.5km/h 42% 0.00in /  0mm
17:51 83.8 °F /  28.8 °C 59.6 °F /  15.3 °C 29.93in /  1013.4hPa ESE 7.0mph /  11.3km/h 7.0mph /  11.3km/h 44% 0.00in /  0mm
17:52 83.9 °F /  28.8 °C 59.7 °F /  15.4 °C 29.93in /  1013.4hPa SE 6.0mph /  9.7km/h 7.0mph /  11.3km/h 44% 0.00in /  0mm
17:56 83.9 °F /  28.8 °C 59.0 °F /  15 °C 29.93in /  1013.4hPa SSE 5.0mph /  8km/h 8.0mph /  12.9km/h 43% 0.00in /  0mm
17:59 83.7 °F /  28.7 °C 60.1 °F /  15.6 °C 29.93in /  1013.4hPa SE 5.0mph /  8km/h 8.0mph /  12.9km/h 45% 0.00in /  0mm
18:04 83.6 °F /  28.7 °C 58.1 °F /  14.5 °C 29.93in /  1013.4hPa SE 5.0mph /  8km/h 6.0mph /  9.7km/h 42% 0.00in /  0mm
18:09 83.6 °F /  28.7 °C 59.4 °F /  15.2 °C 29.93in /  1013.4hPa SSE 3.0mph /  4.8km/h 7.0mph /  11.3km/h 44% 0.00in /  0mm
18:14 83.5 °F /  28.6 °C 58.0 °F /  14.4 °C 29.93in /  1013.4hPa SE 4.0mph /  6.4km/h 9.0mph /  14.5km/h 42% 0.00in /  0mm
18:20 83.4 °F /  28.6 °C 57.9 °F /  14.4 °C 29.93in /  1013.4hPa SE 5.0mph /  8km/h 8.0mph /  12.9km/h 42% 0.00in /  0mm
18:25 83.4 °F /  28.6 °C 59.2 °F /  15.1 °C 29.93in /  1013.4hPa SE 6.0mph /  9.7km/h 7.0mph /  11.3km/h 44% 0.00in /  0mm
18:30 83.2 °F /  28.4 °C 57.1 °F /  13.9 °C 29.92in /  1013.1hPa ESE 6.0mph /  9.7km/h 8.0mph /  12.9km/h 41% 0.00in /  0mm
18:31 83.2 °F /  28.4 °C 57.1 °F /  13.9 °C 29.92in /  1013.1hPa SE 6.0mph /  9.7km/h 8.0mph /  12.9km/h 41% 0.00in /  0mm
18:36 83.1 °F /  28.4 °C 58.3 °F /  14.6 °C 29.92in /  1013.1hPa SE 3.0mph /  4.8km/h 6.0mph /  9.7km/h 43% 0.00in /  0mm
18:38 83.0 °F /  28.3 °C 57.6 °F /  14.2 °C 29.93in /  1013.4hPa SE 3.0mph /  4.8km/h 5.0mph /  8km/h 42% 0.00in /  0mm
18:43 83.2 °F /  28.4 °C 60.3 °F /  15.7 °C 29.92in /  1013.1hPa SE 6.0mph /  9.7km/h 6.0mph /  9.7km/h 46% 0.00in /  0mm
18:48 82.9 °F /  28.3 °C 57.5 °F /  14.2 °C 29.92in /  1013.1hPa ESE 5.0mph /  8km/h 7.0mph /  11.3km/h 42% 0.00in /  0mm
18:53 82.6 °F /  28.1 °C 59.8 °F /  15.4 °C 29.92in /  1013.1hPa SSE 2.0mph /  3.2km/h 4.0mph /  6.4km/h 46% 0.00in /  0mm
18:54 82.6 °F /  28.1 °C 60.3 °F /  15.7 °C 29.92in /  1013.1hPa SSE 3.0mph /  4.8km/h 4.0mph /  6.4km/h 47% 0.00in /  0mm
18:58 82.7 °F /  28.2 °C 60.4 °F /  15.8 °C 29.92in /  1013.1hPa South 5.0mph /  8km/h 6.0mph /  9.7km/h 47% 0.00in /  0mm
18:59 82.8 °F /  28.2 °C 58.7 °F /  14.8 °C 29.92in /  1013.1hPa SE 3.0mph /  4.8km/h 6.0mph /  9.7km/h 44% 0.00in /  0mm
19:04 82.8 °F /  28.2 °C 60.5 °F /  15.8 °C 29.92in /  1013.1hPa SE 5.0mph /  8km/h 5.0mph /  8km/h 47% 0.00in /  0mm
19:09 82.8 °F /  28.2 °C 59.9 °F /  15.5 °C 29.92in /  1013.1hPa SE 4.0mph /  6.4km/h 5.0mph /  8km/h 46% 0.00in /  0mm
19:14 82.4 °F /  28 °C 57.7 °F /  14.3 °C 29.92in /  1013.1hPa SE 5.0mph /  8km/h 6.0mph /  9.7km/h 43% 0.00in /  0mm
19:19 82.1 °F /  27.8 °C 58.7 °F /  14.8 °C 29.92in /  1013.1hPa SSE 4.0mph /  6.4km/h 6.0mph /  9.7km/h 45% 0.00in /  0mm
19:24 81.8 °F /  27.7 °C 58.4 °F /  14.7 °C 29.92in /  1013.1hPa SE 3.0mph /  4.8km/h 6.0mph /  9.7km/h 45% 0.00in /  0mm
19:29 81.7 °F /  27.6 °C 58.3 °F /  14.6 °C 29.92in /  1013.1hPa SE 3.0mph /  4.8km/h 5.0mph /  8km/h 45% 0.00in /  0mm
19:30 81.7 °F /  27.6 °C 58.3 °F /  14.6 °C 29.92in /  1013.1hPa SSE 2.0mph /  3.2km/h 5.0mph /  8km/h 45% 0.00in /  0mm
19:31 81.6 °F /  27.6 °C 59.4 °F /  15.2 °C 29.92in /  1013.1hPa SE 3.0mph /  4.8km/h 5.0mph /  8km/h 47% 0.00in /  0mm
19:35 81.5 °F /  27.5 °C 59.3 °F /  15.2 °C 29.92in /  1013.1hPa SE 2.0mph /  3.2km/h 2.0mph /  3.2km/h 47% 0.00in /  0mm
19:36 81.5 °F /  27.5 °C 59.3 °F /  15.2 °C 29.92in /  1013.1hPa SE 2.0mph /  3.2km/h 3.0mph /  4.8km/h 47% 0.00in /  0mm
19:41 81.4 °F /  27.4 °C 58.7 °F /  14.8 °C 29.92in /  1013.1hPa SE 2.0mph /  3.2km/h 3.0mph /  4.8km/h 46% 0.00in /  0mm
19:46 81.4 °F /  27.4 °C 59.3 °F /  15.2 °C 29.92in /  1013.1hPa ESE 2.0mph /  3.2km/h 3.0mph /  4.8km/h 47% 0.00in /  0mm
19:52 81.1 °F /  27.3 °C 60.7 °F /  15.9 °C 29.92in /  1013.1hPa ESE 1.0mph /  1.6km/h 2.0mph /  3.2km/h 50% 0.00in /  0mm
19:53 81.0 °F /  27.2 °C 60.6 °F /  15.9 °C 29.92in /  1013.1hPa ESE 2.0mph /  3.2km/h 2.0mph /  3.2km/h 50% 0.00in /  0mm
19:56 80.8 °F /  27.1 °C 60.4 °F /  15.8 °C 29.92in /  1013.1hPa ESE 1.0mph /  1.6km/h 2.0mph /  3.2km/h 50% 0.00in /  0mm
19:57 80.7 °F /  27.1 °C 60.9 °F /  16.1 °C 29.92in /  1013.1hPa East 2.0mph /  3.2km/h 2.0mph /  3.2km/h 51% 0.00in /  0mm
19:58 80.6 °F /  27 °C 60.3 °F /  15.7 °C 29.92in /  1013.1hPa ESE 2.0mph /  3.2km/h 2.0mph /  3.2km/h 50% 0.00in /  0mm
20:03 80.1 °F /  26.7 °C 60.9 °F /  16.1 °C 29.92in /  1013.1hPa ESE 1.0mph /  1.6km/h 2.0mph /  3.2km/h 52% 0.00in /  0mm
20:04 80.1 °F /  26.7 °C 60.9 °F /  16.1 °C 29.92in /  1013.1hPa ESE 1.0mph /  1.6km/h 2.0mph /  3.2km/h 52% 0.00in /  0mm
20:09 79.7 °F /  26.5 °C 61.1 °F /  16.2 °C 29.92in /  1013.1hPa East 1.0mph /  1.6km/h 2.0mph /  3.2km/h 53% 0.00in /  0mm
20:14 79.1 °F /  26.2 °C 61.0 °F /  16.1 °C 29.92in /  1013.1hPa East 2.0mph /  3.2km/h 2.0mph /  3.2km/h 54% 0.00in /  0mm
20:19 78.6 °F /  25.9 °C 60.1 °F /  15.6 °C 29.92in /  1013.1hPa ESE 1.0mph /  1.6km/h 2.0mph /  3.2km/h 53% 0.00in /  0mm
20:24 78.2 °F /  25.7 °C 60.2 °F /  15.7 °C 29.92in /  1013.1hPa Calm   1.0mph /  1.6km/h 54% 0.00in /  0mm
20:29 77.7 °F /  25.4 °C 60.3 °F /  15.7 °C 29.92in /  1013.1hPa Calm   1.0mph /  1.6km/h 55% 0.00in /  0mm
20:30 77.6 °F /  25.3 °C 60.2 °F /  15.7 °C 29.92in /  1013.1hPa Calm     55% 0.00in /  0mm
20:32 77.4 °F /  25.2 °C 60.0 °F /  15.6 °C 29.92in /  1013.1hPa Calm     55% 0.00in /  0mm
20:35 77.2 °F /  25.1 °C 59.8 °F /  15.4 °C 29.92in /  1013.1hPa Calm   1.0mph /  1.6km/h 55% 0.00in /  0mm
20:38 77.0 °F /  25 °C 60.1 °F /  15.6 °C 29.92in /  1013.1hPa Calm   1.0mph /  1.6km/h 56% 0.00in /  0mm
20:40 76.8 °F /  24.9 °C 60.4 °F /  15.8 °C 29.92in /  1013.1hPa Calm     57% 0.00in /  0mm
20:45 76.1 °F /  24.5 °C 60.8 °F /  16 °C 29.92in /  1013.1hPa Calm     59% 0.00in /  0mm
20:50 75.4 °F /  24.1 °C 61.0 °F /  16.1 °C 29.93in /  1013.4hPa Calm     61% 0.00in /  0mm
20:55 75.2 °F /  24 °C 59.4 °F /  15.2 °C 29.92in /  1013.1hPa ESE 1.0mph /  1.6km/h 1.0mph /  1.6km/h 58% 0.00in /  0mm
20:56 75.3 °F /  24.1 °C 59.5 °F /  15.3 °C 29.92in /  1013.1hPa ESE 1.0mph /  1.6km/h 1.0mph /  1.6km/h 58% 0.00in /  0mm
21:01 75.5 °F /  24.2 °C 59.2 °F /  15.1 °C 29.92in /  1013.1hPa Calm     57% 0.00in /  0mm
21:06 75.3 °F /  24.1 °C 59.5 °F /  15.3 °C 29.92in /  1013.1hPa Calm   1.0mph /  1.6km/h 58% 0.00in /  0mm
21:11 75.3 °F /  24.1 °C 59.5 °F /  15.3 °C 29.92in /  1013.1hPa East 1.0mph /  1.6km/h 2.0mph /  3.2km/h 58% 0.00in /  0mm
21:16 75.0 °F /  23.9 °C 59.7 °F /  15.4 °C 29.91in /  1012.8hPa East 1.0mph /  1.6km/h 1.0mph /  1.6km/h 59% 0.00in /  0mm
21:21 74.9 °F /  23.8 °C 59.6 °F /  15.3 °C 29.91in /  1012.8hPa Calm   2.0mph /  3.2km/h 59% 0.00in /  0mm
21:26 74.5 °F /  23.6 °C 60.2 °F /  15.7 °C 29.91in /  1012.8hPa East 1.0mph /  1.6km/h 1.0mph /  1.6km/h 61% 0.00in /  0mm
21:31 74.2 °F /  23.4 °C 60.4 °F /  15.8 °C 29.91in /  1012.8hPa Calm   1.0mph /  1.6km/h 62% 0.00in /  0mm
21:32 74.1 °F /  23.4 °C 60.3 °F /  15.7 °C 29.91in /  1012.8hPa Calm   1.0mph /  1.6km/h 62% 0.00in /  0mm
21:33 74.0 °F /  23.3 °C 60.2 °F /  15.7 °C 29.91in /  1012.8hPa Calm   1.0mph /  1.6km/h 62% 0.00in /  0mm
21:37 73.7 °F /  23.2 °C 59.9 °F /  15.5 °C 29.92in /  1013.1hPa Calm     62% 0.00in /  0mm
21:42 73.7 °F /  23.2 °C 59.9 °F /  15.5 °C 29.91in /  1012.8hPa ENE 2.0mph /  3.2km/h 2.0mph /  3.2km/h 62% 0.00in /  0mm
21:47 73.6 °F /  23.1 °C 59.3 °F /  15.2 °C 29.91in /  1012.8hPa NE 1.0mph /  1.6km/h 3.0mph /  4.8km/h 61% 0.00in /  0mm
21:52 73.8 °F /  23.2 °C 59.5 °F /  15.3 °C 29.91in /  1012.8hPa Calm   1.0mph /  1.6km/h 61% 0.00in /  0mm
21:55 73.7 °F /  23.2 °C 59.4 °F /  15.2 °C 29.91in /  1012.8hPa Calm     61% 0.00in /  0mm
21:57 73.4 °F /  23 °C 60.0 °F /  15.6 °C 29.91in /  1012.8hPa East 1.0mph /  1.6km/h 1.0mph /  1.6km/h 63% 0.00in /  0mm
21:58 73.3 °F /  22.9 °C 60.0 °F /  15.6 °C 29.91in /  1012.8hPa ESE 1.0mph /  1.6km/h 1.0mph /  1.6km/h 63% 0.00in /  0mm
22:03 73.2 °F /  22.9 °C 59.9 °F /  15.5 °C 29.91in /  1012.8hPa ENE 2.0mph /  3.2km/h 4.0mph /  6.4km/h 63% 0.00in /  0mm
22:08 73.2 °F /  22.9 °C 59.4 °F /  15.2 °C 29.92in /  1013.1hPa Calm   1.0mph /  1.6km/h 62% 0.00in /  0mm
22:13 73.1 °F /  22.8 °C 59.3 °F /  15.2 °C 29.92in /  1013.1hPa ENE 1.0mph /  1.6km/h 1.0mph /  1.6km/h 62% 0.00in /  0mm
22:15 73.1 °F /  22.8 °C 59.3 °F /  15.2 °C 29.92in /  1013.1hPa Calm   1.0mph /  1.6km/h 62% 0.00in /  0mm
22:20 73.0 °F /  22.8 °C 59.2 °F /  15.1 °C 29.91in /  1012.8hPa East 2.0mph /  3.2km/h 3.0mph /  4.8km/h 62% 0.00in /  0mm
22:25 73.0 °F /  22.8 °C 59.7 °F /  15.4 °C 29.91in /  1012.8hPa East 1.0mph /  1.6km/h 3.0mph /  4.8km/h 63% 0.00in /  0mm
22:26 73.0 °F /  22.8 °C 59.7 °F /  15.4 °C 29.91in /  1012.8hPa Calm   3.0mph /  4.8km/h 63% 0.00in /  0mm
22:31 72.6 °F /  22.6 °C 59.7 °F /  15.4 °C 29.92in /  1013.1hPa SE 1.0mph /  1.6km/h 1.0mph /  1.6km/h 64% 0.00in /  0mm
22:32 72.5 °F /  22.5 °C 60.1 °F /  15.6 °C 29.92in /  1013.1hPa SE 1.0mph /  1.6km/h 1.0mph /  1.6km/h 65% 0.00in /  0mm
22:33 72.3 °F /  22.4 °C 59.9 °F /  15.5 °C 29.92in /  1013.1hPa ESE 1.0mph /  1.6km/h 1.0mph /  1.6km/h 65% 0.00in /  0mm
22:36 72.1 °F /  22.3 °C 59.7 °F /  15.4 °C 29.92in /  1013.1hPa Calm   2.0mph /  3.2km/h 65% 0.00in /  0mm
22:38 71.9 °F /  22.2 °C 59.5 °F /  15.3 °C 29.92in /  1013.1hPa East 1.0mph /  1.6km/h 2.0mph /  3.2km/h 65% 0.00in /  0mm
22:43 71.8 °F /  22.1 °C 59.4 °F /  15.2 °C 29.92in /  1013.1hPa Calm   1.0mph /  1.6km/h 65% 0.00in /  0mm
22:49 71.6 °F /  22 °C 59.2 °F /  15.1 °C 29.92in /  1013.1hPa Calm   1.0mph /  1.6km/h 65% 0.00in /  0mm
22:54 71.3 °F /  21.8 °C 59.4 °F /  15.2 °C 29.92in /  1013.1hPa SE 1.0mph /  1.6km/h 1.0mph /  1.6km/h 66% 0.00in /  0mm
22:59 71.2 °F /  21.8 °C 59.3 °F /  15.2 °C 29.91in /  1012.8hPa ESE 2.0mph /  3.2km/h 3.0mph /  4.8km/h 66% 0.00in /  0mm
23:04 70.9 °F /  21.6 °C 59.4 °F /  15.2 °C 29.91in /  1012.8hPa SE 1.0mph /  1.6km/h 2.0mph /  3.2km/h 67% 0.00in /  0mm
23:08 70.4 °F /  21.3 °C 59.3 °F /  15.2 °C 29.91in /  1012.8hPa ESE 1.0mph /  1.6km/h 1.0mph /  1.6km/h 68% 0.00in /  0mm
23:13 70.1 °F /  21.2 °C 59.5 °F /  15.3 °C 29.92in /  1013.1hPa ESE 1.0mph /  1.6km/h 1.0mph /  1.6km/h 69% 0.00in /  0mm
23:18 70.4 °F /  21.3 °C 59.3 °F /  15.2 °C 29.92in /  1013.1hPa Calm   2.0mph /  3.2km/h 68% 0.00in /  0mm
23:19 70.4 °F /  21.3 °C 59.3 °F /  15.2 °C 29.92in /  1013.1hPa Calm   2.0mph /  3.2km/h 68% 0.00in /  0mm
23:24 70.5 °F /  21.4 °C 59.0 °F /  15 °C 29.93in /  1013.4hPa Calm     67% 0.00in /  0mm
23:29 70.0 °F /  21.1 °C 59.0 °F /  15 °C 29.93in /  1013.4hPa Calm     68% 0.00in /  0mm
23:30 69.8 °F /  21 °C 59.2 °F /  15.1 °C 29.93in /  1013.4hPa ESE 1.0mph /  1.6km/h 1.0mph /  1.6km/h 69% 0.00in /  0mm
23:34 69.5 °F /  20.8 °C 58.9 °F /  14.9 °C 29.93in /  1013.4hPa ESE 1.0mph /  1.6km/h 1.0mph /  1.6km/h 69% 0.00in /  0mm
23:35 69.5 °F /  20.8 °C 58.9 °F /  14.9 °C 29.92in /  1013.1hPa ESE 1.0mph /  1.6km/h 1.0mph /  1.6km/h 69% 0.00in /  0mm
23:36 69.4 °F /  20.8 °C 58.8 °F /  14.9 °C 29.93in /  1013.4hPa ESE 1.0mph /  1.6km/h 1.0mph /  1.6km/h 69% 0.00in /  0mm
23:41 69.3 °F /  20.7 °C 59.1 °F /  15.1 °C 29.92in /  1013.1hPa ESE 1.0mph /  1.6km/h 1.0mph /  1.6km/h 70% 0.00in /  0mm
23:46 69.1 °F /  20.6 °C 58.9 °F /  14.9 °C 29.92in /  1013.1hPa Calm     70% 0.00in /  0mm
23:51 68.6 °F /  20.3 °C 59.2 °F /  15.1 °C 29.92in /  1013.1hPa Calm     72% 0.00in /  0mm
23:56 67.9 °F /  19.9 °C 58.5 °F /  14.7 °C 29.92in /  1013.1hPa Calm     72% 0.00in /  0mm
23:57 67.9 °F /  19.9 °C 58.5 °F /  14.7 °C 29.92in /  1013.1hPa Calm     72% 0.00in /  0mm
Compliments of Weather Underground